Flight Track Log - Related Links

Times and Time Zones

All times are in EDT time to prevent confusion due to time zone crossing. See the N470BC flight status page for this flight to view local times or setup timezone preferences in your user account.

Time Position Orientation Groundspeed Altitude Reporting Facility
EDT Latitude Longitude Course Direction KTS MPH feet Rate Location/Type
Fri 04:30:18 PM 39.1667 -77.1333 360° North 100 115 1,200  Level Potomac TRACON
Fri 04:31:19 PM 39.2000 -77.1333 360° North 121 139 2,100 843 Climbing Potomac TRACON
Fri 04:32:19 PM 39.2333 -77.1333 360° North 128 147 2,900 750 Climbing Potomac TRACON
Fri 04:33:19 PM 39.2667 -77.1500 339° North 140 161 3,600 700 Climbing Potomac TRACON
Fri 04:34:19 PM 39.3000 -77.1667 339° North 139 160 4,300 650 Climbing Potomac TRACON
Fri 04:35:19 PM 39.3333 -77.1500 21° North 135 155 4,900 600 Climbing Potomac TRACON
Fri 04:36:19 PM 39.3667 -77.1167 38° Northeast 139 160 5,500 574 Climbing Potomac TRACON
Fri 04:37:14 PM 39.3833 -77.0833 57° Northeast 139 160 6,000 574 Climbing Potomac TRACON
Fri 04:38:14 PM 39.4167 -77.0500 38° Northeast 136 157 6,600 500 Climbing Potomac TRACON
Fri 04:39:14 PM 39.4500 -77.0167 38° Northeast 147 169 7,000 200 Climbing Potomac TRACON
Fri 04:40:14 PM 39.4833 -76.9833 38° Northeast 164 189 7,000  Level Potomac TRACON
Fri 04:41:15 PM 39.5167 -76.9500 38° Northeast 173 199 7,000  Level Potomac TRACON
Fri 04:42:15 PM 39.5667 -76.9000 38° Northeast 169 194 7,000  Level Potomac TRACON
Fri 04:43:16 PM 39.6000 -76.8667 38° Northeast 172 198 7,000  Level Potomac TRACON
Fri 04:44:16 PM 39.6333 -76.8167 49° Northeast 178 205 7,000  Level Potomac TRACON
Fri 04:45:16 PM 39.6667 -76.7833 38° Northeast 175 201 7,000 28 Level Potomac TRACON
Fri 04:47:00 PM 39.7293 -76.7160 40° Northeast  Level FlightAware Approximate
Fri 04:54:00 PM 39.9800 -76.4398 41° Northeast  Level FlightAware Approximate
Fri 04:55:00 PM 40.0153 -76.3995 41° Northeast  Level FlightAware Approximate
Fri 04:56:00 PM 40.0506 -76.3591 41° Northeast  Level FlightAware Approximate
Fri 04:57:00 PM 40.0859 -76.3187 41° Northeast  Level FlightAware Approximate
Fri 04:58:00 PM 40.0724 -76.2614 107° East  Level FlightAware Approximate
Fri 04:59:00 PM 40.0922 -76.2074 65° Northeast  Level Estimated
Fri 05:00:00 PM 40.1058 -76.1501 73° East  Level FlightAware Approximate
Fri 05:01:00 PM 40.1194 -76.0929 73° East  Level FlightAware Approximate
Fri 05:02:00 PM 40.1329 -76.0356 73° East  Level FlightAware Approximate
Fri 05:02:02 PM 40.1667 -75.9833 64° Northeast 179 206 7,500  Level Philadelphia TRACON
Fri 05:03:00 PM 40.1465 -75.9783 73° East  Level FlightAware Approximate
Fri 05:03:32 PM 40.2000 -75.8833 66° East 179 206 7,500  Level Philadelphia TRACON
Fri 05:04:00 PM 40.1600 -75.9210 73° East  Level FlightAware Approximate
Fri 05:04:26 PM 40.2167 -75.8333 66° East 178 205 7,500  Level Philadelphia TRACON
Fri 05:05:00 PM 40.1734 -75.8636 73° East  Level FlightAware Approximate
Fri 05:05:38 PM 40.2500 -75.7667 57° Northeast 180 207 7,500  Level Philadelphia TRACON
Fri 05:06:00 PM 40.1869 -75.8062 73° East  Level FlightAware Approximate
Fri 05:06:26 PM 40.2667 -75.7167 66° East 181 208 7,500  Level Philadelphia TRACON
Fri 05:07:00 PM 40.2073 -75.7525 64° Northeast  Level Estimated
Fri 05:07:38 PM 40.2833 -75.6500 72° East 179 206 7,500  Level Philadelphia TRACON
Fri 05:08:38 PM 40.3167 -75.5833 57° Northeast 179 206 7,500  Level Philadelphia TRACON
Fri 05:09:32 PM 40.3333 -75.5333 66° East 178 205 7,500  Level Philadelphia TRACON
Fri 05:10:32 PM 40.3500 -75.4833 66° East 179 206 7,500  Level Philadelphia TRACON
Fri 05:11:26 PM 40.3667 -75.4333 66° East 179 206 7,500  Level Philadelphia TRACON
Fri 05:12:26 PM 40.3833 -75.3667 72° East 178 205 7,500  Level Philadelphia TRACON
Fri 05:13:44 PM 40.4167 -75.3000 57° Northeast 181 208 7,500  Level Philadelphia TRACON
Fri 05:14:26 PM 40.4333 -75.2500 66° East 178 205 7,500  Level Philadelphia TRACON
Fri 05:15:20 PM 40.4500 -75.2000 66° East 178 205 7,500  Level Philadelphia TRACON
Fri 05:17:09 PM 40.4833 -75.0833 69° East 174 200 7,500  Level New York TRACON
Fri 05:18:09 PM 40.5167 -75.0333 49° Northeast 172 198 7,500  Level New York TRACON
Fri 05:19:09 PM 40.5333 -74.9833 66° East 172 198 7,500  Level New York TRACON
Fri 05:20:09 PM 40.5500 -74.9167 72° East 168 193 7,500  Level New York TRACON
Fri 05:21:09 PM 40.5667 -74.8667 66° East 170 196 7,500  Level New York TRACON
Fri 05:22:15 PM 40.5833 -74.8000 72° East 170 196 7,500  Level New York TRACON
Fri 05:23:09 PM 40.6167 -74.7500 49° Northeast 177 204 7,500  Level New York TRACON
Fri 05:24:15 PM 40.6333 -74.6833 72° East 172 198 7,500  Level New York TRACON
Fri 05:25:15 PM 40.6500 -74.6333 66° East 172 198 7,500  Level New York TRACON
Fri 05:26:15 PM 40.6667 -74.5667 72° East 173 199 7,500  Level New York TRACON
Fri 05:27:15 PM 40.6833 -74.5167 66° East 169 194 7,500  Level New York TRACON
Fri 05:28:15 PM 40.7167 -74.4667 49° Northeast 168 193 7,500  Level New York TRACON
Fri 05:29:09 PM 40.7333 -74.4167 66° East 167 192 7,500  Level New York TRACON
Fri 05:30:15 PM 40.7500 -74.3500 72° East 166 191 7,500  Level New York TRACON
Fri 05:31:09 PM 40.7667 -74.3000 66° East 168 193 7,500  Level New York TRACON
Fri 05:32:09 PM 40.7833 -74.2500 66° East 172 198 7,500  Level New York TRACON
Fri 05:33:15 PM 40.8000 -74.1833 72° East 173 199 7,500  Level New York TRACON
Fri 05:34:15 PM 40.8333 -74.1333 49° Northeast 168 193 7,500  Level New York TRACON
Fri 05:35:15 PM 40.8500 -74.0667 72° East 169 194 7,500  Level New York TRACON
Fri 05:36:15 PM 40.8667 -74.0167 66° East 173 199 7,500  Level New York TRACON
Fri 05:37:15 PM 40.8833 -73.9500 72° East 172 198 7,500  Level New York TRACON
Fri 05:38:15 PM 40.9000 -73.9000 66° East 170 196 7,500  Level New York TRACON
Fri 05:39:15 PM 40.9167 -73.8500 66° East 172 198 7,500  Level New York TRACON
Fri 05:40:15 PM 40.9333 -73.7833 72° East 170 196 7,500  Level New York TRACON
Fri 05:41:15 PM 40.9667 -73.7333 49° Northeast 172 198 7,500  Level New York TRACON
Fri 05:42:15 PM 40.9833 -73.6667 72° East 173 199 7,500  Level New York TRACON
Fri 05:43:09 PM 41.0000 -73.6167 66° East 170 196 7,500  Level New York TRACON
Fri 05:44:09 PM 41.0167 -73.5667 66° East 169 194 7,500 -286 Level New York TRACON
Fri 05:45:15 PM 41.0333 -73.5000 72° East 184 212 6,900 -857 Descending New York TRACON
Fri 05:46:15 PM 41.0667 -73.4333 56° Northeast 206 237 5,700 -1,250 Descending New York TRACON
Fri 05:47:15 PM 41.0833 -73.3667 72° East 204 235 4,400 -1,300 Descending New York TRACON
Fri 05:49:00 PM 41.1054 -73.2674 74° East  Level FlightAware Approximate
Fri 05:56:00 PM 41.1500 -73.1167 66° East  Level FlightAware Approximate
Fri 05:57:00 PM 41.1635 -73.1262 66° East  Level Estimated
Fri 05:58:00 PM 41.1635 -73.1262 66° East  Level Estimated
Fri 05:59:00 PM 41.1635 -73.1262 66° East  Level Estimated
Fri 06:00:00 PM 41.1635 -73.1262 66° East  Level Estimated
Fri 06:01:00 PM 41.1635 -73.1262 66° East  Level Estimated
Fri 06:02:00 PM 41.1635 -73.1262 66° East  Level Estimated
Fri 06:03:00 PM 41.1635 -73.1262 66° East  Level Estimated
Fri 06:04:00 PM 41.1635 -73.1262 66° East  Level Estimated
Fri 06:05:00 PM 41.1635 -73.1262 66° East  Level Estimated
Fri 06:06:00 PM 41.1635 -73.1262 66° East  Level Estimated
Fri 06:07:00 PM 41.1635 -73.1262 66° East  Level Estimated
Fri 06:08:00 PM 41.1635 -73.1262 66° East  Level Estimated
Fri 06:09:00 PM 41.1635 -73.1262 66° East  Level Estimated
Fri 06:10:00 PM 41.1635 -73.1262 66° East  Level Estimated
Fri 06:11:00 PM 41.1635 -73.1262 66° East  Level Estimated

Login

Don't have an account? Register now (free) for customized features, flight alerts, and more!